< Cyclone 200201 2002 Season Cyclone 200203 >
Cyclone 200202 (BESSI)
General InformationTrack Information on Google MapsDetailed Wind InformationList of All Images || ResourceGoogle EarthGE AnimationAtom FeedGeoJSON
Detalied Best Track (Time Zone = UTC)
Year Month Day Hour Lat. Long. Pressure (hPa) Wind (kt) Class Image Chart
2001 11 25 06 -6.9 95.6 1004 21 2 Image --
2001 11 25 12 -7.5 94.9 1004 21 2 Image --
2001 11 25 18 -7.6 94.9 1004 21 2 Image --
2001 11 26 00 -7.7 94.8 1002 23 2 Image --
2001 11 26 06 -7.8 94.8 1000 27 2 Image --
2001 11 26 12 -7.9 94.8 998 29 2 Image --
2001 11 26 18 -8.1 94.4 998 29 2 Image --
2001 11 27 00 -8.2 94.0 995 35 3 Image --
2001 11 27 06 -8.2 93.6 994 35 3 Image --
2001 11 27 12 -8.5 93.2 992 39 3 Image --
2001 11 27 18 -8.8 92.8 990 41 3 Image --
2001 11 28 00 -9.4 92.4 985 49 4 Image --
2001 11 28 06 -9.6 92.3 980 54 4 Image --
2001 11 28 12 -10.3 92.3 984 49 4 Image --
2001 11 28 18 -10.8 92.0 988 45 3 Image --
2001 11 29 00 -11.1 91.8 990 41 3 Image --
2001 11 29 06 -12.1 91.5 992 39 3 Image --
2001 11 29 12 -13.3 91.2 994 35 3 Image --
2001 11 29 18 -13.8 90.2 994 35 3 Image --
2001 11 30 00 -14.1 89.3 992 39 3 Image --
2001 11 30 06 -14.4 88.9 990 41 3 Image --
2001 11 30 12 -14.6 88.0 988 45 3 Image --
2001 11 30 18 -14.8 87.0 985 49 4 Image --
2001 12 1 00 -14.9 86.2 982 51 4 Image --
2001 12 1 06 -15.0 85.6 978 56 4 Image --
2001 12 1 12 -15.2 85.5 972 62 4 Image --
< Cyclone 200201 2002 Season Cyclone 200203 >

Help